VIBN/VNS METAR and TAF weather

Enter ICAO airport designator
Station Type Date Time Source
VIBN METAR 2018/11/18 09:00 UTC NOAA

VIBN 180900Z VR02KT 3500 HZ NSC 28/11 Q1012 NOSIG


Station Type Date Time Source
VIBN Decoded METAR 2018/11/18 09:00 UTC NOAA

Varanasi / Babatpur, India (VIBN) 25-27N 082-52E 85M
Nov 18, 2018 - 04:00 AM EST / 2018.11.18 0900 UTC
Visibility: 2 mile(s):0
Weather: haze
Temperature: 82 F (28 C)
Dew Point: 51 F (11 C)
Relative Humidity: 34%
Pressure (altimeter): 29.88 in. Hg (1012 hPa)
ob: VIBN 180900Z VR02KT 3500 HZ NSC 28/11 Q1012 NOSIG
cycle: 9

Station Type Date Time Source
VIBN TAF 2016/04/15 06:15 UTC NOAA

TAF TAF VIBN 150500Z 1506/1612 27008KT 5000 HZ NSC
BECMG 1512/1514 VRB03KT 4000 HZ
BECMG 1600/1602 2500 HZ
BECMG 1603/1605 32008KT 5000 HZ


Example: see airport list